Teesside, United Kingdom
Current Conditions -  °F | °C
As of 8:20 PM on Thursday 29 Jan 2015 (Local Time) from EGNV Reporting Station
Few Clouds Few Clouds  
Wind Chill: 28°   Ceiling: Unl
Heat Index: 34°   Visibility: 6mi
Dew Point: 28°   Wind: 7mph
Humidity: 81%   Direction: 280°W
Pressure: 28.73"   Gusts: NA
Location:  54.58°N, 1.25°W
Report Text: EGNV 292020Z 28006KT 9999 FEW025 01/M02 Q0973
Loading
Personal Weather Stations






























Interactive Weather Map New forecast layout! Learn more

10-Day Weather Forecast

Advertisements
Track Severe Weather on mobile